sensor_id;sensor_type;location;lat;lon;timestamp;temperature;humidity
53802;DHT22;39709;53.334;6.534;2022-12-18T00:01:33;-3.00;99.90
53802;DHT22;39709;53.334;6.534;2022-12-18T00:04:00;-2.80;99.90
53802;DHT22;39709;53.334;6.534;2022-12-18T00:06:28;-2.90;99.90
53802;DHT22;39709;53.334;6.534;2022-12-18T00:08:56;-3.20;99.90
53802;DHT22;39709;53.334;6.534;2022-12-18T00:11:25;-2.50;99.90
53802;DHT22;39709;53.334;6.534;2022-12-18T00:13:52;-2.50;99.90
53802;DHT22;39709;53.334;6.534;2022-12-18T00:16:21;-2.20;99.90
53802;DHT22;39709;53.334;6.534;2022-12-18T00:18:48;-2.20;99.90
53802;DHT22;39709;53.334;6.534;2022-12-18T00:21:14;-2.40;99.90
53802;DHT22;39709;53.334;6.534;2022-12-18T00:23:41;-2.80;99.90
53802;DHT22;39709;53.334;6.534;2022-12-18T00:26:14;-3.10;99.90
53802;DHT22;39709;53.334;6.534;2022-12-18T00:28:43;-3.10;99.90
53802;DHT22;39709;53.334;6.534;2022-12-18T00:31:15;-2.90;99.90
53802;DHT22;39709;53.334;6.534;2022-12-18T00:33:41;-2.50;99.90
53802;DHT22;39709;53.334;6.534;2022-12-18T00:36:17;-2.40;99.90
53802;DHT22;39709;53.334;6.534;2022-12-18T00:38:43;-2.80;99.90
53802;DHT22;39709;53.334;6.534;2022-12-18T00:41:10;-2.90;99.90
53802;DHT22;39709;53.334;6.534;2022-12-18T00:43:38;-2.80;99.90
53802;DHT22;39709;53.334;6.534;2022-12-18T00:46:04;-2.50;99.90
53802;DHT22;39709;53.334;6.534;2022-12-18T00:48:30;-2.50;99.90
53802;DHT22;39709;53.334;6.534;2022-12-18T00:50:55;-2.40;99.90
53802;DHT22;39709;53.334;6.534;2022-12-18T00:53:21;-2.80;99.90
53802;DHT22;39709;53.334;6.534;2022-12-18T00:55:47;-2.60;99.90
53802;DHT22;39709;53.334;6.534;2022-12-18T00:58:14;-2.40;99.90
53802;DHT22;39709;53.334;6.534;2022-12-18T01:00:40;-3.00;99.90
53802;DHT22;39709;53.334;6.534;2022-12-18T01:03:06;-3.10;99.90
53802;DHT22;39709;53.334;6.534;2022-12-18T01:05:32;-3.30;99.90
53802;DHT22;39709;53.334;6.534;2022-12-18T01:07:58;-3.20;99.90
53802;DHT22;39709;53.334;6.534;2022-12-18T01:10:25;-3.50;99.90
53802;DHT22;39709;53.334;6.534;2022-12-18T01:12:51;-2.90;99.90
53802;DHT22;39709;53.334;6.534;2022-12-18T01:15:19;-3.50;99.90
53802;DHT22;39709;53.334;6.534;2022-12-18T01:17:45;-3.30;99.90
53802;DHT22;39709;53.334;6.534;2022-12-18T01:20:12;-2.80;99.90
53802;DHT22;39709;53.334;6.534;2022-12-18T01:22:38;-3.20;99.90
53802;DHT22;39709;53.334;6.534;2022-12-18T01:25:05;-3.30;99.90
53802;DHT22;39709;53.334;6.534;2022-12-18T01:27:32;-3.50;99.90
53802;DHT22;39709;53.334;6.534;2022-12-18T01:29:58;-3.50;99.90
53802;DHT22;39709;53.334;6.534;2022-12-18T01:32:24;-3.80;99.90
53802;DHT22;39709;53.334;6.534;2022-12-18T01:34:49;-3.30;99.90
53802;DHT22;39709;53.334;6.534;2022-12-18T01:37:15;-3.80;99.90
53802;DHT22;39709;53.334;6.534;2022-12-18T01:39:41;-3.90;99.90
53802;DHT22;39709;53.334;6.534;2022-12-18T01:42:14;-3.70;99.90
53802;DHT22;39709;53.334;6.534;2022-12-18T01:47:30;-3.80;99.90
53802;DHT22;39709;53.334;6.534;2022-12-18T01:49:59;-3.60;99.90
53802;DHT22;39709;53.334;6.534;2022-12-18T01:52:31;-2.00;99.90
53802;DHT22;39709;53.334;6.534;2022-12-18T01:54:59;-3.30;99.90
53802;DHT22;39709;53.334;6.534;2022-12-18T01:57:26;-3.10;99.90
53802;DHT22;39709;53.334;6.534;2022-12-18T01:59:55;-3.90;99.90
53802;DHT22;39709;53.334;6.534;2022-12-18T02:02:22;-3.80;99.90
53802;DHT22;39709;53.334;6.534;2022-12-18T02:04:48;-4.00;99.90
53802;DHT22;39709;53.334;6.534;2022-12-18T02:07:28;-3.80;84.30
53802;DHT22;39709;53.334;6.534;2022-12-18T02:10:20;-4.00;99.90
53802;DHT22;39709;53.334;6.534;2022-12-18T02:15:36;-4.00;99.90
53802;DHT22;39709;53.334;6.534;2022-12-18T02:18:11;-4.20;94.70
53802;DHT22;39709;53.334;6.534;2022-12-18T02:26:18;-4.60;33.70
53802;DHT22;39709;53.334;6.534;2022-12-18T02:28:54;-4.80;20.70
53802;DHT22;39709;53.334;6.534;2022-12-18T02:31:29;-4.80;19.10
53802;DHT22;39709;53.334;6.534;2022-12-18T02:33:58;-4.90;12.00
53802;DHT22;39709;53.334;6.534;2022-12-18T02:36:26;-5.00;7.40
53802;DHT22;39709;53.334;6.534;2022-12-18T02:38:53;-5.10;9.10
53802;DHT22;39709;53.334;6.534;2022-12-18T02:41:25;-5.10;8.90
53802;DHT22;39709;53.334;6.534;2022-12-18T02:43:59;-5.10;14.00
53802;DHT22;39709;53.334;6.534;2022-12-18T02:46:43;-5.10;14.10
53802;DHT22;39709;53.334;6.534;2022-12-18T02:49:26;-5.20;13.00
53802;DHT22;39709;53.334;6.534;2022-12-18T02:52:31;-5.20;10.40
53802;DHT22;39709;53.334;6.534;2022-12-18T02:57:54;-5.40;8.60
53802;DHT22;39709;53.334;6.534;2022-12-18T03:00:28;-5.30;11.20
53802;DHT22;39709;53.334;6.534;2022-12-18T03:08:44;-5.30;11.10
53802;DHT22;39709;53.334;6.534;2022-12-18T03:11:13;-5.40;9.70
53802;DHT22;39709;53.334;6.534;2022-12-18T03:13:54;-5.40;8.40
53802;DHT22;39709;53.334;6.534;2022-12-18T03:16:26;-5.40;5.60
53802;DHT22;39709;53.334;6.534;2022-12-18T03:19:00;-5.40;5.40
53802;DHT22;39709;53.334;6.534;2022-12-18T03:21:33;-5.40;6.40
53802;DHT22;39709;53.334;6.534;2022-12-18T03:24:00;-5.40;4.10
53802;DHT22;39709;53.334;6.534;2022-12-18T03:26:27;-5.50;1.00
53802;DHT22;39709;53.334;6.534;2022-12-18T03:28:56;-5.50;1.00
53802;DHT22;39709;53.334;6.534;2022-12-18T03:31:23;-5.50;1.00
53802;DHT22;39709;53.334;6.534;2022-12-18T03:36:18;-5.60;1.00
53802;DHT22;39709;53.334;6.534;2022-12-18T03:38:44;-5.70;1.00
53802;DHT22;39709;53.334;6.534;2022-12-18T03:44:15;-5.80;1.00
53802;DHT22;39709;53.334;6.534;2022-12-18T03:49:47;-5.90;1.00
53802;DHT22;39709;53.334;6.534;2022-12-18T03:52:26;-6.00;1.00
53802;DHT22;39709;53.334;6.534;2022-12-18T03:54:54;-6.00;1.00
53802;DHT22;39709;53.334;6.534;2022-12-18T03:57:23;-6.10;1.00
53802;DHT22;39709;53.334;6.534;2022-12-18T03:59:56;-6.10;1.00
53802;DHT22;39709;53.334;6.534;2022-12-18T04:02:23;-6.10;1.00
53802;DHT22;39709;53.334;6.534;2022-12-18T04:04:52;-6.10;1.00
53802;DHT22;39709;53.334;6.534;2022-12-18T04:07:20;-6.20;1.00
53802;DHT22;39709;53.334;6.534;2022-12-18T04:09:48;-6.20;1.00
53802;DHT22;39709;53.334;6.534;2022-12-18T04:12:14;-6.20;1.00
53802;DHT22;39709;53.334;6.534;2022-12-18T04:14:39;-6.20;1.00
53802;DHT22;39709;53.334;6.534;2022-12-18T04:17:05;-6.20;1.00
53802;DHT22;39709;53.334;6.534;2022-12-18T04:19:31;-6.20;1.00
53802;DHT22;39709;53.334;6.534;2022-12-18T04:21:56;-6.10;1.00
53802;DHT22;39709;53.334;6.534;2022-12-18T04:24:22;-6.10;1.00
53802;DHT22;39709;53.334;6.534;2022-12-18T04:26:48;-6.10;1.00
53802;DHT22;39709;53.334;6.534;2022-12-18T04:29:13;-6.10;1.00
53802;DHT22;39709;53.334;6.534;2022-12-18T04:31:39;-6.10;1.00
53802;DHT22;39709;53.334;6.534;2022-12-18T04:34:05;-6.10;1.00
53802;DHT22;39709;53.334;6.534;2022-12-18T04:36:30;-6.20;1.00
53802;DHT22;39709;53.334;6.534;2022-12-18T04:38:56;-6.10;1.00
53802;DHT22;39709;53.334;6.534;2022-12-18T04:41:22;-6.20;1.00
53802;DHT22;39709;53.334;6.534;2022-12-18T04:43:47;-6.20;1.00
53802;DHT22;39709;53.334;6.534;2022-12-18T04:46:13;-6.20;1.00
53802;DHT22;39709;53.334;6.534;2022-12-18T04:48:39;-6.20;1.00
53802;DHT22;39709;53.334;6.534;2022-12-18T04:51:05;-6.20;1.00
53802;DHT22;39709;53.334;6.534;2022-12-18T04:53:31;-6.20;1.00
53802;DHT22;39709;53.334;6.534;2022-12-18T04:56:12;-6.10;1.00
53802;DHT22;39709;53.334;6.534;2022-12-18T04:58:40;-6.10;1.00
53802;DHT22;39709;53.334;6.534;2022-12-18T05:01:07;-6.10;1.00
53802;DHT22;39709;53.334;6.534;2022-12-18T05:03:34;-6.10;1.00
53802;DHT22;39709;53.334;6.534;2022-12-18T05:06:00;-6.10;1.00
53802;DHT22;39709;53.334;6.534;2022-12-18T05:08:26;-6.10;1.00
53802;DHT22;39709;53.334;6.534;2022-12-18T05:11:03;-6.00;1.00
53802;DHT22;39709;53.334;6.534;2022-12-18T05:13:29;-6.00;1.00
53802;DHT22;39709;53.334;6.534;2022-12-18T05:15:55;-6.00;1.00
53802;DHT22;39709;53.334;6.534;2022-12-18T05:18:24;-6.10;1.00
53802;DHT22;39709;53.334;6.534;2022-12-18T05:20:52;-6.00;1.00
53802;DHT22;39709;53.334;6.534;2022-12-18T05:23:19;-6.00;1.00
53802;DHT22;39709;53.334;6.534;2022-12-18T05:25:55;-6.00;1.00
53802;DHT22;39709;53.334;6.534;2022-12-18T05:28:22;-6.00;1.00
53802;DHT22;39709;53.334;6.534;2022-12-18T05:30:53;-6.00;1.00
53802;DHT22;39709;53.334;6.534;2022-12-18T05:33:19;-6.00;1.00
53802;DHT22;39709;53.334;6.534;2022-12-18T05:35:51;-6.10;1.00
53802;DHT22;39709;53.334;6.534;2022-12-18T05:38:17;-6.10;1.00
53802;DHT22;39709;53.334;6.534;2022-12-18T05:40:43;-6.20;1.00
53802;DHT22;39709;53.334;6.534;2022-12-18T05:43:10;-6.20;1.00
53802;DHT22;39709;53.334;6.534;2022-12-18T05:45:39;-6.20;1.00
53802;DHT22;39709;53.334;6.534;2022-12-18T05:48:06;-6.30;1.00
53802;DHT22;39709;53.334;6.534;2022-12-18T05:50:42;-6.40;1.00
53802;DHT22;39709;53.334;6.534;2022-12-18T05:53:08;-6.40;1.00
53802;DHT22;39709;53.334;6.534;2022-12-18T05:55:38;-6.40;1.00
53802;DHT22;39709;53.334;6.534;2022-12-18T05:58:06;-6.50;1.00
53802;DHT22;39709;53.334;6.534;2022-12-18T06:00:33;-6.60;1.00
53802;DHT22;39709;53.334;6.534;2022-12-18T06:03:00;-6.50;1.00
53802;DHT22;39709;53.334;6.534;2022-12-18T06:05:26;-6.60;1.00
53802;DHT22;39709;53.334;6.534;2022-12-18T06:07:52;-6.10;1.00
53802;DHT22;39709;53.334;6.534;2022-12-18T06:10:17;-6.60;1.00
53802;DHT22;39709;53.334;6.534;2022-12-18T06:12:43;-6.70;1.00
53802;DHT22;39709;53.334;6.534;2022-12-18T06:15:09;-6.60;1.00
53802;DHT22;39709;53.334;6.534;2022-12-18T06:17:35;-6.60;1.00
53802;DHT22;39709;53.334;6.534;2022-12-18T06:20:01;-6.60;1.00
53802;DHT22;39709;53.334;6.534;2022-12-18T06:22:27;-6.60;1.00
53802;DHT22;39709;53.334;6.534;2022-12-18T06:24:53;-6.60;1.00
53802;DHT22;39709;53.334;6.534;2022-12-18T06:27:19;-6.60;1.00
53802;DHT22;39709;53.334;6.534;2022-12-18T06:29:44;-6.60;1.00
53802;DHT22;39709;53.334;6.534;2022-12-18T06:32:11;-6.60;1.00
53802;DHT22;39709;53.334;6.534;2022-12-18T06:34:39;-6.60;1.00
53802;DHT22;39709;53.334;6.534;2022-12-18T06:37:05;-6.70;1.00
53802;DHT22;39709;53.334;6.534;2022-12-18T06:39:30;-6.70;1.00
53802;DHT22;39709;53.334;6.534;2022-12-18T06:41:56;-6.70;1.00
53802;DHT22;39709;53.334;6.534;2022-12-18T06:44:22;-6.80;1.00
53802;DHT22;39709;53.334;6.534;2022-12-18T06:46:47;-6.80;1.00
53802;DHT22;39709;53.334;6.534;2022-12-18T06:49:13;-6.80;1.00
53802;DHT22;39709;53.334;6.534;2022-12-18T06:51:39;-6.80;1.00
53802;DHT22;39709;53.334;6.534;2022-12-18T06:54:04;-6.80;1.00
53802;DHT22;39709;53.334;6.534;2022-12-18T06:56:31;-6.80;1.00
53802;DHT22;39709;53.334;6.534;2022-12-18T06:58:56;-6.80;1.00
53802;DHT22;39709;53.334;6.534;2022-12-18T07:01:22;-6.90;1.00
53802;DHT22;39709;53.334;6.534;2022-12-18T07:03:52;-6.80;1.00
53802;DHT22;39709;53.334;6.534;2022-12-18T07:06:20;-6.80;1.00
53802;DHT22;39709;53.334;6.534;2022-12-18T07:08:47;-6.80;1.00
53802;DHT22;39709;53.334;6.534;2022-12-18T07:11:14;-6.80;1.00
53802;DHT22;39709;53.334;6.534;2022-12-18T07:13:40;-6.80;1.00
53802;DHT22;39709;53.334;6.534;2022-12-18T07:16:11;-6.80;1.00
53802;DHT22;39709;53.334;6.534;2022-12-18T07:18:37;-6.70;1.00
53802;DHT22;39709;53.334;6.534;2022-12-18T07:21:07;-6.70;1.00
53802;DHT22;39709;53.334;6.534;2022-12-18T07:23:34;-6.80;1.00
53802;DHT22;39709;53.334;6.534;2022-12-18T07:26:02;-6.70;1.00
53802;DHT22;39709;53.334;6.534;2022-12-18T07:28:28;-6.80;1.00
53802;DHT22;39709;53.334;6.534;2022-12-18T07:30:54;-6.90;1.00
53802;DHT22;39709;53.334;6.534;2022-12-18T07:33:19;-6.90;1.00
53802;DHT22;39709;53.334;6.534;2022-12-18T07:35:45;-7.00;1.00
53802;DHT22;39709;53.334;6.534;2022-12-18T07:38:11;-6.60;1.00
53802;DHT22;39709;53.334;6.534;2022-12-18T07:40:36;-7.00;1.00
53802;DHT22;39709;53.334;6.534;2022-12-18T07:43:02;-7.00;1.00
53802;DHT22;39709;53.334;6.534;2022-12-18T07:45:27;-7.10;1.00
53802;DHT22;39709;53.334;6.534;2022-12-18T07:47:53;-7.10;1.00
53802;DHT22;39709;53.334;6.534;2022-12-18T07:50:19;-7.20;1.00
53802;DHT22;39709;53.334;6.534;2022-12-18T07:52:44;-7.20;1.00
53802;DHT22;39709;53.334;6.534;2022-12-18T07:55:10;-7.20;1.00
53802;DHT22;39709;53.334;6.534;2022-12-18T07:57:36;-7.20;1.00
53802;DHT22;39709;53.334;6.534;2022-12-18T08:00:02;-7.20;1.00
53802;DHT22;39709;53.334;6.534;2022-12-18T08:02:30;-7.20;1.00
53802;DHT22;39709;53.334;6.534;2022-12-18T08:04:56;-7.20;1.00
53802;DHT22;39709;53.334;6.534;2022-12-18T08:07:22;-7.10;1.00
53802;DHT22;39709;53.334;6.534;2022-12-18T08:09:47;-7.00;1.00
53802;DHT22;39709;53.334;6.534;2022-12-18T08:12:13;-6.90;1.00
53802;DHT22;39709;53.334;6.534;2022-12-18T08:14:38;-6.90;1.00
53802;DHT22;39709;53.334;6.534;2022-12-18T08:17:05;-6.80;1.00
53802;DHT22;39709;53.334;6.534;2022-12-18T08:19:30;-6.80;1.00
53802;DHT22;39709;53.334;6.534;2022-12-18T08:21:56;-6.80;1.00
53802;DHT22;39709;53.334;6.534;2022-12-18T08:24:22;-6.70;1.00
53802;DHT22;39709;53.334;6.534;2022-12-18T08:26:48;-6.70;1.00
53802;DHT22;39709;53.334;6.534;2022-12-18T08:29:14;-6.70;1.00
53802;DHT22;39709;53.334;6.534;2022-12-18T08:31:40;-6.60;1.00
53802;DHT22;39709;53.334;6.534;2022-12-18T08:34:07;-6.60;1.00
53802;DHT22;39709;53.334;6.534;2022-12-18T08:36:33;-6.50;1.00
53802;DHT22;39709;53.334;6.534;2022-12-18T08:38:58;-6.00;1.00
53802;DHT22;39709;53.334;6.534;2022-12-18T08:41:24;-6.40;1.00
53802;DHT22;39709;53.334;6.534;2022-12-18T08:43:50;-6.40;1.00
53802;DHT22;39709;53.334;6.534;2022-12-18T08:46:40;-6.40;1.00
53802;DHT22;39709;53.334;6.534;2022-12-18T08:49:07;-6.40;1.00
53802;DHT22;39709;53.334;6.534;2022-12-18T08:51:33;-6.40;1.00
53802;DHT22;39709;53.334;6.534;2022-12-18T08:53:59;-4.70;1.00
53802;DHT22;39709;53.334;6.534;2022-12-18T08:56:25;-6.30;1.00
53802;DHT22;39709;53.334;6.534;2022-12-18T08:58:52;-6.20;1.00
53802;DHT22;39709;53.334;6.534;2022-12-18T09:01:19;-6.30;1.00
53802;DHT22;39709;53.334;6.534;2022-12-18T09:03:44;-6.30;1.00
53802;DHT22;39709;53.334;6.534;2022-12-18T09:06:14;-6.30;1.00
53802;DHT22;39709;53.334;6.534;2022-12-18T09:08:41;-6.20;1.00
53802;DHT22;39709;53.334;6.534;2022-12-18T09:11:21;-6.20;1.00
53802;DHT22;39709;53.334;6.534;2022-12-18T09:13:47;-6.20;1.00
53802;DHT22;39709;53.334;6.534;2022-12-18T09:16:13;-6.10;1.00
53802;DHT22;39709;53.334;6.534;2022-12-18T09:18:39;-6.00;1.00
53802;DHT22;39709;53.334;6.534;2022-12-18T09:21:19;-6.00;1.00
53802;DHT22;39709;53.334;6.534;2022-12-18T09:23:50;-5.90;1.00
53802;DHT22;39709;53.334;6.534;2022-12-18T09:26:16;-5.00;1.00
53802;DHT22;39709;53.334;6.534;2022-12-18T09:28:42;-5.80;1.00
53802;DHT22;39709;53.334;6.534;2022-12-18T09:31:08;-5.70;1.00
53802;DHT22;39709;53.334;6.534;2022-12-18T09:33:36;-5.70;1.00
53802;DHT22;39709;53.334;6.534;2022-12-18T09:36:04;-5.60;1.00
53802;DHT22;39709;53.334;6.534;2022-12-18T09:38:29;-5.50;1.00
53802;DHT22;39709;53.334;6.534;2022-12-18T09:43:47;-5.50;1.00
53802;DHT22;39709;53.334;6.534;2022-12-18T09:46:23;-5.40;1.00
53802;DHT22;39709;53.334;6.534;2022-12-18T09:48:52;-5.40;1.00
53802;DHT22;39709;53.334;6.534;2022-12-18T09:51:28;-5.30;1.00
53802;DHT22;39709;53.334;6.534;2022-12-18T09:54:07;-5.30;1.00
53802;DHT22;39709;53.334;6.534;2022-12-18T09:56:41;-5.30;1.00
53802;DHT22;39709;53.334;6.534;2022-12-18T09:59:17;-5.20;1.00
53802;DHT22;39709;53.334;6.534;2022-12-18T10:01:44;-5.20;1.00
53802;DHT22;39709;53.334;6.534;2022-12-18T10:04:10;-5.10;1.00
53802;DHT22;39709;53.334;6.534;2022-12-18T10:06:51;-5.10;1.00
53802;DHT22;39709;53.334;6.534;2022-12-18T10:09:38;-5.10;1.00
53802;DHT22;39709;53.334;6.534;2022-12-18T10:17:37;-4.90;1.00
53802;DHT22;39709;53.334;6.534;2022-12-18T10:20:24;-4.80;1.00
53802;DHT22;39709;53.334;6.534;2022-12-18T10:23:02;-4.70;1.00
53802;DHT22;39709;53.334;6.534;2022-12-18T10:25:38;-4.60;1.00
53802;DHT22;39709;53.334;6.534;2022-12-18T10:28:14;-4.50;1.00
53802;DHT22;39709;53.334;6.534;2022-12-18T10:30:41;-4.40;1.00
53802;DHT22;39709;53.334;6.534;2022-12-18T10:33:18;-4.30;1.00
53802;DHT22;39709;53.334;6.534;2022-12-18T10:35:45;-4.30;1.00
53802;DHT22;39709;53.334;6.534;2022-12-18T10:40:56;-4.20;1.00
53802;DHT22;39709;53.334;6.534;2022-12-18T10:43:28;-4.20;1.00
53802;DHT22;39709;53.334;6.534;2022-12-18T10:51:31;-4.20;1.00
53802;DHT22;39709;53.334;6.534;2022-12-18T10:54:17;-4.10;1.00
53802;DHT22;39709;53.334;6.534;2022-12-18T10:56:43;-4.00;1.00
53802;DHT22;39709;53.334;6.534;2022-12-18T10:59:11;-4.00;1.00
53802;DHT22;39709;53.334;6.534;2022-12-18T11:01:55;-4.00;1.00
53802;DHT22;39709;53.334;6.534;2022-12-18T11:04:26;-3.60;1.00
53802;DHT22;39709;53.334;6.534;2022-12-18T11:07:06;-3.90;1.00
53802;DHT22;39709;53.334;6.534;2022-12-18T11:09:33;-3.90;1.00
53802;DHT22;39709;53.334;6.534;2022-12-18T11:14:46;-3.80;1.00
53802;DHT22;39709;53.334;6.534;2022-12-18T11:17:23;-3.80;1.00
53802;DHT22;39709;53.334;6.534;2022-12-18T11:19:57;-3.60;1.00
53802;DHT22;39709;53.334;6.534;2022-12-18T11:22:28;-3.60;1.00
53802;DHT22;39709;53.334;6.534;2022-12-18T11:25:04;-3.60;1.00
53802;DHT22;39709;53.334;6.534;2022-12-18T11:27:31;-3.50;1.00
53802;DHT22;39709;53.334;6.534;2022-12-18T11:32:55;-3.60;1.00
53802;DHT22;39709;53.334;6.534;2022-12-18T11:37:56;-3.50;1.00
53802;DHT22;39709;53.334;6.534;2022-12-18T11:40:36;-3.50;1.00
53802;DHT22;39709;53.334;6.534;2022-12-18T11:43:16;-3.30;1.00
53802;DHT22;39709;53.334;6.534;2022-12-18T11:46:13;-3.40;1.00
53802;DHT22;39709;53.334;6.534;2022-12-18T11:48:54;-3.30;1.00
53802;DHT22;39709;53.334;6.534;2022-12-18T11:51:31;-3.30;1.00
53802;DHT22;39709;53.334;6.534;2022-12-18T11:53:57;-3.20;1.00
53802;DHT22;39709;53.334;6.534;2022-12-18T11:56:32;-3.10;1.00
53802;DHT22;39709;53.334;6.534;2022-12-18T11:59:44;-3.10;1.00
53802;DHT22;39709;53.334;6.534;2022-12-18T12:07:26;-3.20;1.00
53802;DHT22;39709;53.334;6.534;2022-12-18T12:15:52;-3.10;1.00
53802;DHT22;39709;53.334;6.534;2022-12-18T12:29:27;-3.00;1.00
53802;DHT22;39709;53.334;6.534;2022-12-18T12:34:26;-2.80;1.00
53802;DHT22;39709;53.334;6.534;2022-12-18T12:39:47;-2.70;1.00
53802;DHT22;39709;53.334;6.534;2022-12-18T12:42:44;-2.30;1.00
53802;DHT22;39709;53.334;6.534;2022-12-18T12:45:38;-2.50;1.00
53802;DHT22;39709;53.334;6.534;2022-12-18T12:48:19;-2.50;1.00
53802;DHT22;39709;53.334;6.534;2022-12-18T12:50:46;-2.40;1.00
53802;DHT22;39709;53.334;6.534;2022-12-18T12:53:21;-2.30;7.60
53802;DHT22;39709;53.334;6.534;2022-12-18T12:55:47;-2.20;24.50
53802;DHT22;39709;53.334;6.534;2022-12-18T12:58:31;-2.30;1.00
53802;DHT22;39709;53.334;6.534;2022-12-18T13:01:10;-2.10;29.60
53802;DHT22;39709;53.334;6.534;2022-12-18T13:04:00;-2.20;15.70
53802;DHT22;39709;53.334;6.534;2022-12-18T13:06:42;-2.10;27.60
53802;DHT22;39709;53.334;6.534;2022-12-18T13:09:09;-2.00;41.90
53802;DHT22;39709;53.334;6.534;2022-12-18T13:11:41;-2.20;1.00
53802;DHT22;39709;53.334;6.534;2022-12-18T13:14:37;-2.10;26.30
53802;DHT22;39709;53.334;6.534;2022-12-18T13:19:52;-2.10;1.00
53802;DHT22;39709;53.334;6.534;2022-12-18T13:22:48;-2.10;1.00
53802;DHT22;39709;53.334;6.534;2022-12-18T13:25:31;-2.20;1.00
53802;DHT22;39709;53.334;6.534;2022-12-18T13:28:07;-2.10;1.00
53802;DHT22;39709;53.334;6.534;2022-12-18T13:38:23;-2.30;1.00
53802;DHT22;39709;53.334;6.534;2022-12-18T13:43:23;-2.30;1.00
53802;DHT22;39709;53.334;6.534;2022-12-18T13:46:03;-2.20;1.00
53802;DHT22;39709;53.334;6.534;2022-12-18T13:48:32;-2.30;1.00
53802;DHT22;39709;53.334;6.534;2022-12-18T13:51:10;-2.30;1.00
53802;DHT22;39709;53.334;6.534;2022-12-18T13:53:42;-2.30;1.00
53802;DHT22;39709;53.334;6.534;2022-12-18T13:56:08;-2.30;1.00
53802;DHT22;39709;53.334;6.534;2022-12-18T13:58:34;-2.30;1.00
53802;DHT22;39709;53.334;6.534;2022-12-18T14:01:00;-2.30;1.00
53802;DHT22;39709;53.334;6.534;2022-12-18T14:03:28;-2.30;1.00
53802;DHT22;39709;53.334;6.534;2022-12-18T14:06:06;-2.30;1.00
53802;DHT22;39709;53.334;6.534;2022-12-18T14:08:37;-2.30;1.00
53802;DHT22;39709;53.334;6.534;2022-12-18T14:11:04;-2.20;1.00
53802;DHT22;39709;53.334;6.534;2022-12-18T14:13:34;-2.30;1.00
53802;DHT22;39709;53.334;6.534;2022-12-18T14:16:04;-2.30;1.00
53802;DHT22;39709;53.334;6.534;2022-12-18T14:18:43;-2.20;1.00
53802;DHT22;39709;53.334;6.534;2022-12-18T14:21:23;-2.00;1.00
53802;DHT22;39709;53.334;6.534;2022-12-18T14:26:30;-2.30;1.00
53802;DHT22;39709;53.334;6.534;2022-12-18T14:29:10;-2.30;1.00
53802;DHT22;39709;53.334;6.534;2022-12-18T14:31:42;-2.30;1.00
53802;DHT22;39709;53.334;6.534;2022-12-18T14:34:17;-2.30;1.00
53802;DHT22;39709;53.334;6.534;2022-12-18T14:36:53;-2.30;1.00
53802;DHT22;39709;53.334;6.534;2022-12-18T14:39:21;-2.40;1.00
53802;DHT22;39709;53.334;6.534;2022-12-18T14:41:49;-2.40;1.00
53802;DHT22;39709;53.334;6.534;2022-12-18T14:44:15;-2.40;1.00
53802;DHT22;39709;53.334;6.534;2022-12-18T14:46:43;-2.40;1.00
53802;DHT22;39709;53.334;6.534;2022-12-18T14:49:34;-2.30;1.00
53802;DHT22;39709;53.334;6.534;2022-12-18T14:52:02;-1.90;1.00
53802;DHT22;39709;53.334;6.534;2022-12-18T14:54:29;-2.40;1.00
53802;DHT22;39709;53.334;6.534;2022-12-18T14:59:27;-2.50;1.00
53802;DHT22;39709;53.334;6.534;2022-12-18T15:04:40;-2.40;1.00
53802;DHT22;39709;53.334;6.534;2022-12-18T15:07:22;-2.40;1.00
53802;DHT22;39709;53.334;6.534;2022-12-18T15:12:38;-1.90;1.00
53802;DHT22;39709;53.334;6.534;2022-12-18T15:18:13;-2.30;1.00
53802;DHT22;39709;53.334;6.534;2022-12-18T15:20:50;-2.50;1.00
53802;DHT22;39709;53.334;6.534;2022-12-18T15:23:22;-2.30;1.00
53802;DHT22;39709;53.334;6.534;2022-12-18T15:25:55;-2.10;29.70
53802;DHT22;39709;53.334;6.534;2022-12-18T15:28:26;-2.00;46.90
53802;DHT22;39709;53.334;6.534;2022-12-18T15:33:32;-2.10;67.50
53802;DHT22;39709;53.334;6.534;2022-12-18T15:36:08;-2.10;76.00
53802;DHT22;39709;53.334;6.534;2022-12-18T15:38:35;-2.00;91.80
53802;DHT22;39709;53.334;6.534;2022-12-18T15:41:01;-2.00;98.90
53802;DHT22;39709;53.334;6.534;2022-12-18T15:43:30;-2.00;99.90
53802;DHT22;39709;53.334;6.534;2022-12-18T15:46:09;-2.10;99.60
53802;DHT22;39709;53.334;6.534;2022-12-18T15:48:41;-2.10;99.90
53802;DHT22;39709;53.334;6.534;2022-12-18T15:51:17;-2.00;99.90
53802;DHT22;39709;53.334;6.534;2022-12-18T15:53:44;-2.00;99.90
53802;DHT22;39709;53.334;6.534;2022-12-18T15:56:11;-1.90;99.90
53802;DHT22;39709;53.334;6.534;2022-12-18T15:58:55;-1.70;99.90
53802;DHT22;39709;53.334;6.534;2022-12-18T16:01:23;-1.50;99.90
53802;DHT22;39709;53.334;6.534;2022-12-18T16:03:49;-1.90;99.90
53802;DHT22;39709;53.334;6.534;2022-12-18T16:06:15;-1.80;99.90
53802;DHT22;39709;53.334;6.534;2022-12-18T16:08:40;-2.00;99.90
53802;DHT22;39709;53.334;6.534;2022-12-18T16:16:29;-3.00;63.90
53802;DHT22;39709;53.334;6.534;2022-12-18T16:18:55;-2.60;1.00
53802;DHT22;39709;53.334;6.534;2022-12-18T16:21:21;-2.60;1.00
53802;DHT22;39709;53.334;6.534;2022-12-18T16:23:46;-1.50;1.00
53802;DHT22;39709;53.334;6.534;2022-12-18T16:26:12;-2.70;1.00
53802;DHT22;39709;53.334;6.534;2022-12-18T16:28:37;-2.70;1.00
53802;DHT22;39709;53.334;6.534;2022-12-18T16:31:03;-2.80;1.00
53802;DHT22;39709;53.334;6.534;2022-12-18T16:33:29;-2.80;1.00
53802;DHT22;39709;53.334;6.534;2022-12-18T16:35:54;-2.60;1.00
53802;DHT22;39709;53.334;6.534;2022-12-18T16:38:20;-1.30;1.00
53802;DHT22;39709;53.334;6.534;2022-12-18T16:40:46;-2.80;1.00
53802;DHT22;39709;53.334;6.534;2022-12-18T16:43:30;-3.00;1.00
53802;DHT22;39709;53.334;6.534;2022-12-18T16:45:58;-3.00;1.00
53802;DHT22;39709;53.334;6.534;2022-12-18T16:48:24;-2.70;1.00
53802;DHT22;39709;53.334;6.534;2022-12-18T16:50:50;-2.80;1.00
53802;DHT22;39709;53.334;6.534;2022-12-18T16:53:15;-2.30;1.00
53802;DHT22;39709;53.334;6.534;2022-12-18T16:55:41;-2.70;1.00
53802;DHT22;39709;53.334;6.534;2022-12-18T16:58:06;-2.70;1.00
53802;DHT22;39709;53.334;6.534;2022-12-18T17:00:32;-2.60;1.00
53802;DHT22;39709;53.334;6.534;2022-12-18T17:02:58;-2.60;1.00
53802;DHT22;39709;53.334;6.534;2022-12-18T17:05:23;-2.50;1.00
53802;DHT22;39709;53.334;6.534;2022-12-18T17:07:49;-2.50;1.00
53802;DHT22;39709;53.334;6.534;2022-12-18T17:10:15;-2.50;1.00
53802;DHT22;39709;53.334;6.534;2022-12-18T17:12:41;-2.50;1.00
53802;DHT22;39709;53.334;6.534;2022-12-18T17:15:07;-2.50;1.00
53802;DHT22;39709;53.334;6.534;2022-12-18T17:17:33;-2.50;1.00
53802;DHT22;39709;53.334;6.534;2022-12-18T17:20:00;-2.50;1.00
53802;DHT22;39709;53.334;6.534;2022-12-18T17:22:26;-2.50;1.00
53802;DHT22;39709;53.334;6.534;2022-12-18T17:24:52;-2.50;1.00
53802;DHT22;39709;53.334;6.534;2022-12-18T17:27:18;-2.50;1.00
53802;DHT22;39709;53.334;6.534;2022-12-18T17:29:43;-2.50;1.00
53802;DHT22;39709;53.334;6.534;2022-12-18T17:32:09;-2.50;1.00
53802;DHT22;39709;53.334;6.534;2022-12-18T17:34:35;-2.40;1.00
53802;DHT22;39709;53.334;6.534;2022-12-18T17:37:01;-2.40;1.00
53802;DHT22;39709;53.334;6.534;2022-12-18T17:39:27;-2.50;1.00
53802;DHT22;39709;53.334;6.534;2022-12-18T17:41:53;-2.50;1.00
53802;DHT22;39709;53.334;6.534;2022-12-18T17:44:19;-2.50;1.00
53802;DHT22;39709;53.334;6.534;2022-12-18T17:46:44;-2.40;1.00
53802;DHT22;39709;53.334;6.534;2022-12-18T17:49:10;-2.40;1.00
53802;DHT22;39709;53.334;6.534;2022-12-18T17:51:36;-2.40;1.00
53802;DHT22;39709;53.334;6.534;2022-12-18T17:54:02;-2.40;1.00